createdAt,value
2022-08-18T00:01:16.516Z,18.30
2022-08-18T00:03:56.734Z,18.33
2022-08-18T00:06:29.901Z,18.35
2022-08-18T00:08:59.623Z,18.35
2022-08-18T00:11:40.698Z,18.34
2022-08-18T00:14:22.561Z,18.33
2022-08-18T00:16:53.706Z,18.32
2022-08-18T00:19:45.529Z,18.31
2022-08-18T00:22:17.013Z,18.33
2022-08-18T00:24:48.072Z,18.34
2022-08-18T00:27:28.781Z,18.33
2022-08-18T00:30:02.669Z,18.33
2022-08-18T00:32:34.985Z,18.32
2022-08-18T00:35:29.011Z,18.34
2022-08-18T00:38:00.525Z,18.33
2022-08-18T00:40:38.251Z,18.31
2022-08-18T00:43:13.955Z,18.31
2022-08-18T00:45:44.542Z,18.31
2022-08-18T00:48:13.920Z,18.30
2022-08-18T00:51:00.460Z,18.27
2022-08-18T00:53:50.424Z,18.25
2022-08-18T00:56:25.607Z,18.25
2022-08-18T00:59:06.443Z,18.23
2022-08-18T01:01:35.784Z,18.23
2022-08-18T01:04:24.459Z,18.22
2022-08-18T01:06:58.070Z,18.22
2022-08-18T01:09:26.973Z,18.23
2022-08-18T01:11:56.539Z,18.23
2022-08-18T01:14:25.178Z,18.24
2022-08-18T01:17:12.587Z,18.24
2022-08-18T01:19:59.842Z,18.25
2022-08-18T01:22:49.353Z,18.26
2022-08-18T01:25:39.907Z,18.28
2022-08-18T01:28:08.524Z,18.31
2022-08-18T01:30:50.870Z,18.33
2022-08-18T01:33:19.964Z,18.35
2022-08-18T01:35:49.510Z,18.36
2022-08-18T01:38:19.983Z,18.37
2022-08-18T01:41:23.007Z,18.38
2022-08-18T01:43:38.468Z,18.40
2022-08-18T01:46:07.465Z,18.41
2022-08-18T01:48:37.348Z,18.43
2022-08-18T01:51:08.201Z,18.44
2022-08-18T01:53:37.444Z,18.45
2022-08-18T01:56:07.209Z,18.47
2022-08-18T01:58:36.544Z,18.50
2022-08-18T02:01:05.103Z,18.51
2022-08-18T02:03:36.975Z,18.54
2022-08-18T02:06:10.961Z,18.55
2022-08-18T02:08:45.825Z,18.56
2022-08-18T02:11:21.699Z,18.58
2022-08-18T02:13:50.122Z,18.59
2022-08-18T02:16:18.514Z,18.60
2022-08-18T02:18:48.350Z,18.61
2022-08-18T02:21:21.554Z,18.63
2022-08-18T02:23:53.753Z,18.66
2022-08-18T02:26:23.612Z,18.65
2022-08-18T02:28:52.442Z,18.62
2022-08-18T02:31:24.273Z,18.56
2022-08-18T02:33:54.192Z,18.50
2022-08-18T02:36:25.069Z,18.48
2022-08-18T02:38:59.265Z,18.44
2022-08-18T02:41:29.982Z,18.42
2022-08-18T02:43:59.343Z,18.38
2022-08-18T02:46:29.341Z,18.38
2022-08-18T02:49:19.410Z,18.40
2022-08-18T02:51:52.545Z,18.39
2022-08-18T02:54:25.654Z,18.41
2022-08-18T02:56:54.382Z,18.40
2022-08-18T02:59:27.675Z,18.41
2022-08-18T03:01:56.588Z,18.42
2022-08-18T03:04:30.431Z,18.43
2022-08-18T03:07:02.325Z,18.43
2022-08-18T03:09:32.052Z,18.43
2022-08-18T03:12:00.791Z,18.44
2022-08-18T03:14:30.058Z,18.44
2022-08-18T03:16:58.632Z,18.46
2022-08-18T03:19:29.016Z,18.45
2022-08-18T03:22:02.787Z,18.46
2022-08-18T03:24:33.043Z,18.46
2022-08-18T03:27:06.842Z,18.46
2022-08-18T03:29:36.093Z,18.46
2022-08-18T03:32:09.188Z,18.46
2022-08-18T03:34:37.649Z,18.47
2022-08-18T03:37:06.111Z,18.47
2022-08-18T03:39:36.266Z,18.49
2022-08-18T03:42:04.968Z,18.48
2022-08-18T03:44:39.156Z,18.48
2022-08-18T03:47:12.242Z,18.48
2022-08-18T03:49:41.794Z,18.50
2022-08-18T03:52:10.581Z,18.48
2022-08-18T03:54:39.874Z,18.49
2022-08-18T03:57:11.156Z,18.49
2022-08-18T03:59:41.984Z,18.49
2022-08-18T04:02:11.279Z,18.49
2022-08-18T04:04:42.981Z,18.49
2022-08-18T04:07:14.478Z,18.49
2022-08-18T04:09:43.574Z,18.49
2022-08-18T04:12:16.977Z,18.49
2022-08-18T04:14:49.026Z,18.50
2022-08-18T04:17:26.228Z,18.51
2022-08-18T04:19:56.530Z,18.51
2022-08-18T04:22:26.427Z,18.51
2022-08-18T04:24:55.680Z,18.51
2022-08-18T04:27:28.261Z,18.54
2022-08-18T04:29:56.833Z,18.52
2022-08-18T04:32:30.728Z,18.53
2022-08-18T04:34:59.106Z,18.53
2022-08-18T04:37:32.610Z,18.54
2022-08-18T04:40:07.673Z,18.55
2022-08-18T04:42:43.276Z,18.54
2022-08-18T04:45:12.989Z,18.54
2022-08-18T04:47:44.139Z,18.53
2022-08-18T04:50:19.499Z,18.54
2022-08-18T04:53:06.456Z,18.55
2022-08-18T04:55:34.840Z,18.55
2022-08-18T04:58:03.564Z,18.55
2022-08-18T05:00:32.250Z,18.56
2022-08-18T05:03:01.935Z,18.58
2022-08-18T05:05:30.342Z,18.58
2022-08-18T05:07:58.734Z,18.59
2022-08-18T05:10:27.287Z,18.60
2022-08-18T05:12:56.693Z,18.60
2022-08-18T05:15:25.001Z,18.61
2022-08-18T05:17:53.667Z,18.63
2022-08-18T05:20:26.334Z,18.62
2022-08-18T05:22:55.919Z,18.64
2022-08-18T05:25:24.229Z,18.65
2022-08-18T05:27:52.989Z,18.66
2022-08-18T05:30:21.694Z,18.66
2022-08-18T05:32:50.738Z,18.66
2022-08-18T05:35:37.955Z,18.66
2022-08-18T05:38:46.538Z,18.66
2022-08-18T05:41:39.980Z,18.69
2022-08-18T05:44:13.933Z,18.70
2022-08-18T05:46:54.140Z,18.72
2022-08-18T05:49:25.237Z,18.74
2022-08-18T05:51:59.426Z,18.74
2022-08-18T05:55:09.636Z,18.75
2022-08-18T05:57:44.788Z,18.75
2022-08-18T06:00:13.746Z,18.76
2022-08-18T06:02:56.977Z,18.78
2022-08-18T06:05:33.149Z,18.81
2022-08-18T06:08:10.851Z,18.83
2022-08-18T06:10:44.428Z,18.85
2022-08-18T06:13:13.402Z,18.88
2022-08-18T06:16:09.731Z,18.92
2022-08-18T06:18:59.651Z,18.94
2022-08-18T06:21:36.969Z,18.94
2022-08-18T06:24:41.738Z,18.93
2022-08-18T06:27:28.835Z,18.92
2022-08-18T06:30:18.492Z,18.91
2022-08-18T06:33:21.566Z,18.91
2022-08-18T06:36:02.971Z,18.94
2022-08-18T06:39:13.497Z,18.96
2022-08-18T06:41:51.396Z,18.98
2022-08-18T06:44:29.539Z,18.96
2022-08-18T06:47:26.330Z,18.98
2022-08-18T06:50:13.722Z,18.98
2022-08-18T06:53:18.922Z,18.99
2022-08-18T06:55:56.448Z,18.99
2022-08-18T06:58:30.801Z,18.96
2022-08-18T07:01:07.123Z,18.94
2022-08-18T07:03:35.454Z,18.89
2022-08-18T07:06:08.005Z,18.87
2022-08-18T07:08:42.559Z,18.86
2022-08-18T07:11:23.242Z,18.87
2022-08-18T07:14:14.535Z,18.86
2022-08-18T07:16:59.582Z,18.88
2022-08-18T07:19:30.472Z,18.89
2022-08-18T07:22:01.805Z,18.85
2022-08-18T07:24:34.213Z,18.82
2022-08-18T07:27:18.317Z,18.78
2022-08-18T07:30:15.723Z,18.76
2022-08-18T07:32:50.967Z,18.74
2022-08-18T07:35:29.279Z,18.74
2022-08-18T07:38:40.974Z,18.76
2022-08-18T07:41:11.336Z,18.73
2022-08-18T07:43:51.389Z,18.75
2022-08-18T07:46:38.916Z,18.76
2022-08-18T07:49:07.926Z,18.80
2022-08-18T07:51:43.716Z,18.84
2022-08-18T07:54:50.945Z,18.88
2022-08-18T07:57:54.616Z,18.98
2022-08-18T08:03:24.103Z,19.06
2022-08-18T08:05:57.537Z,19.04
2022-08-18T08:09:20.375Z,19.02
2022-08-18T08:11:52.364Z,19.00
2022-08-18T08:14:44.103Z,19.00
2022-08-18T08:17:23.798Z,18.99
2022-08-18T08:20:12.543Z,18.98
2022-08-18T08:23:02.807Z,18.97
2022-08-18T08:25:54.150Z,18.98
2022-08-18T08:29:07.128Z,18.91
2022-08-18T08:31:47.776Z,18.90
2022-08-18T08:34:28.249Z,18.93
2022-08-18T08:37:12.632Z,18.95
2022-08-18T08:39:48.760Z,18.90
2022-08-18T08:42:40.498Z,18.85
2022-08-18T08:45:15.157Z,18.84
2022-08-18T08:48:09.292Z,18.82
2022-08-18T08:51:03.781Z,18.78
2022-08-18T08:53:42.807Z,18.77
2022-08-18T08:56:16.471Z,18.80
2022-08-18T08:59:00.972Z,18.79
2022-08-18T09:01:32.384Z,18.78
2022-08-18T09:04:31.219Z,18.82
2022-08-18T09:07:02.461Z,18.87
2022-08-18T09:09:47.626Z,18.92
2022-08-18T09:12:55.872Z,19.00
2022-08-18T09:15:46.945Z,19.08
2022-08-18T09:18:44.907Z,19.19
2022-08-18T09:21:45.362Z,19.27
2022-08-18T09:24:31.042Z,19.34
2022-08-18T09:27:23.675Z,19.42
2022-08-18T09:29:54.289Z,19.45
2022-08-18T09:32:22.924Z,19.43
2022-08-18T09:35:13.192Z,19.40
2022-08-18T09:37:46.223Z,19.38
2022-08-18T09:41:01.886Z,19.39
2022-08-18T09:44:17.942Z,19.35
2022-08-18T09:46:57.848Z,19.33
2022-08-18T09:49:26.628Z,19.25
2022-08-18T09:51:59.930Z,19.24
2022-08-18T09:54:33.405Z,19.23
2022-08-18T10:00:09.840Z,19.20
2022-08-18T10:02:50.517Z,19.15
2022-08-18T10:05:19.836Z,19.16
2022-08-18T10:07:53.301Z,19.22
2022-08-18T10:11:01.646Z,19.33
2022-08-18T10:13:49.490Z,19.44
2022-08-18T10:16:21.426Z,19.54
2022-08-18T10:19:33.981Z,19.67
2022-08-18T10:22:10.980Z,19.86
2022-08-18T10:24:56.444Z,19.98
2022-08-18T10:27:46.478Z,20.10
2022-08-18T10:30:34.493Z,20.25
2022-08-18T10:33:17.796Z,20.33
2022-08-18T10:35:59.055Z,20.42
2022-08-18T10:38:45.914Z,20.45
2022-08-18T10:41:24.436Z,20.42
2022-08-18T10:43:55.658Z,20.38
2022-08-18T10:46:42.546Z,20.33
2022-08-18T10:49:14.947Z,20.30
2022-08-18T10:52:04.557Z,20.32
2022-08-18T10:54:54.544Z,20.29
2022-08-18T10:57:49.937Z,20.32
2022-08-18T11:00:21.797Z,20.33
2022-08-18T11:03:21.113Z,20.33
2022-08-18T11:06:01.493Z,20.31
2022-08-18T11:11:52.887Z,20.22
2022-08-18T11:14:43.929Z,20.20
2022-08-18T11:17:33.786Z,20.13
2022-08-18T11:20:05.830Z,20.11
2022-08-18T11:22:36.157Z,20.08
2022-08-18T11:28:19.055Z,20.21
2022-08-18T11:30:53.311Z,20.28
2022-08-18T11:33:24.693Z,20.34
2022-08-18T11:36:01.477Z,20.37
2022-08-18T11:38:31.731Z,20.39
2022-08-18T11:41:19.753Z,20.39
2022-08-18T11:43:59.903Z,20.36
2022-08-18T11:46:38.973Z,20.26
2022-08-18T11:49:34.034Z,20.19
2022-08-18T11:52:29.632Z,20.18
2022-08-18T11:55:24.050Z,20.18
2022-08-18T11:57:58.632Z,20.22
2022-08-18T12:00:42.938Z,20.33
2022-08-18T12:03:34.787Z,20.47
2022-08-18T12:06:21.888Z,20.57
2022-08-18T12:09:05.996Z,20.62
2022-08-18T12:11:54.518Z,20.70
2022-08-18T12:14:31.548Z,20.79
2022-08-18T12:17:01.804Z,20.88
2022-08-18T12:19:34.530Z,20.93
2022-08-18T12:22:15.918Z,20.97
2022-08-18T12:24:46.808Z,20.98
2022-08-18T12:27:23.625Z,21.02
2022-08-18T12:29:55.352Z,21.06
2022-08-18T12:32:41.368Z,21.16
2022-08-18T12:35:16.254Z,21.27
2022-08-18T12:38:12.755Z,21.35
2022-08-18T12:40:40.115Z,21.30
2022-08-18T12:43:09.393Z,21.25
2022-08-18T12:45:39.217Z,21.28
2022-08-18T12:48:08.554Z,21.28
2022-08-18T12:50:49.615Z,21.30
2022-08-18T12:53:30.031Z,21.38
2022-08-18T12:56:24.997Z,21.39
2022-08-18T12:58:53.985Z,21.40
2022-08-18T13:04:14.114Z,21.64
2022-08-18T13:06:59.156Z,21.75
2022-08-18T13:09:35.238Z,21.92
2022-08-18T13:12:20.347Z,21.99
2022-08-18T13:14:51.002Z,21.88
2022-08-18T13:17:29.154Z,21.78
2022-08-18T13:20:15.042Z,21.65
2022-08-18T13:22:43.453Z,21.56
2022-08-18T13:25:32.270Z,21.48
2022-08-18T13:28:06.557Z,21.44
2022-08-18T13:30:37.023Z,21.49
2022-08-18T13:33:35.147Z,21.40
2022-08-18T13:35:55.760Z,21.33
2022-08-18T13:38:27.404Z,21.21
2022-08-18T13:40:59.660Z,21.11
2022-08-18T13:43:32.234Z,21.00
2022-08-18T13:46:04.165Z,20.94
2022-08-18T13:48:33.894Z,21.02
2022-08-18T13:51:04.772Z,21.09
2022-08-18T13:53:40.555Z,21.17
2022-08-18T13:56:31.491Z,21.23
2022-08-18T13:59:00.966Z,21.32
2022-08-18T14:01:45.140Z,21.43
2022-08-18T14:04:22.372Z,21.42
2022-08-18T14:06:57.392Z,21.38
2022-08-18T14:09:36.299Z,21.39
2022-08-18T14:12:21.773Z,21.40
2022-08-18T14:14:53.716Z,21.35
2022-08-18T14:17:27.111Z,21.32
2022-08-18T14:20:15.165Z,21.34
2022-08-18T14:23:11.425Z,21.35
2022-08-18T14:25:59.732Z,21.37
2022-08-18T14:28:31.116Z,21.39
2022-08-18T14:31:02.014Z,21.37
2022-08-18T14:33:49.599Z,21.32
2022-08-18T14:36:30.008Z,21.22
2022-08-18T14:39:01.004Z,21.13
2022-08-18T14:41:29.647Z,20.99
2022-08-18T14:44:13.747Z,20.89
2022-08-18T14:46:52.466Z,20.86
2022-08-18T14:49:28.527Z,20.84
2022-08-18T14:51:59.201Z,20.83
2022-08-18T14:54:30.060Z,20.77
2022-08-18T14:57:05.578Z,20.83
2022-08-18T14:59:37.683Z,20.95
2022-08-18T15:02:13.013Z,21.00
2022-08-18T15:04:55.845Z,21.00
2022-08-18T15:07:25.693Z,21.03
2022-08-18T15:10:14.827Z,21.01
2022-08-18T15:12:46.117Z,21.00
2022-08-18T15:15:16.782Z,21.02
2022-08-18T15:17:50.147Z,21.01
2022-08-18T15:20:29.446Z,20.95
2022-08-18T15:23:24.789Z,20.97
2022-08-18T15:25:59.766Z,20.94
2022-08-18T15:28:28.701Z,20.90
2022-08-18T15:33:50.237Z,20.82
2022-08-18T15:36:28.963Z,20.82
2022-08-18T15:39:01.386Z,20.84
2022-08-18T15:41:44.197Z,20.80
2022-08-18T15:44:14.872Z,20.78
2022-08-18T15:46:51.218Z,20.79
2022-08-18T15:49:23.064Z,20.75
2022-08-18T15:51:52.878Z,20.73
2022-08-18T15:54:21.303Z,20.75
2022-08-18T15:56:57.990Z,20.75
2022-08-18T15:59:33.045Z,20.75
2022-08-18T16:02:12.028Z,20.70
2022-08-18T16:04:47.653Z,20.68
2022-08-18T16:07:40.053Z,20.67
2022-08-18T16:10:07.869Z,20.63
2022-08-18T16:12:36.337Z,20.67
2022-08-18T16:17:48.012Z,20.68
2022-08-18T16:20:18.880Z,20.65
2022-08-18T16:22:47.888Z,20.61
2022-08-18T16:25:17.145Z,20.58
2022-08-18T16:27:47.798Z,20.59
2022-08-18T16:30:19.849Z,20.51
2022-08-18T16:32:49.242Z,20.48
2022-08-18T16:35:20.317Z,20.42
2022-08-18T16:37:50.178Z,20.36
2022-08-18T16:40:19.886Z,20.33
2022-08-18T16:42:48.537Z,20.28
2022-08-18T16:45:22.892Z,20.24
2022-08-18T16:47:51.369Z,20.22
2022-08-18T16:50:20.148Z,20.19
2022-08-18T16:52:48.800Z,20.17
2022-08-18T16:55:17.803Z,20.09
2022-08-18T16:58:05.430Z,20.05
2022-08-18T17:00:54.870Z,20.00
2022-08-18T17:03:44.626Z,19.96
2022-08-18T17:06:16.534Z,19.92
2022-08-18T17:08:45.403Z,19.87
2022-08-18T17:11:18.275Z,19.85
2022-08-18T17:13:59.666Z,19.83
2022-08-18T17:16:29.292Z,19.77
2022-08-18T17:18:59.021Z,19.77
2022-08-18T17:21:29.918Z,19.72
2022-08-18T17:23:59.142Z,19.67
2022-08-18T17:26:29.751Z,19.64
2022-08-18T17:29:21.671Z,19.61
2022-08-18T17:31:53.985Z,19.52
2022-08-18T17:34:31.364Z,19.48
2022-08-18T17:37:01.514Z,19.44
2022-08-18T17:39:54.096Z,19.42
2022-08-18T17:42:29.431Z,19.41
2022-08-18T17:45:05.234Z,19.39
2022-08-18T17:47:51.882Z,19.36
2022-08-18T17:50:53.108Z,19.34
2022-08-18T17:53:22.489Z,19.28
2022-08-18T17:56:00.000Z,19.22
2022-08-18T17:58:35.476Z,19.20
2022-08-18T18:01:04.434Z,19.18
2022-08-18T18:03:34.256Z,19.17
2022-08-18T18:06:31.653Z,19.15
2022-08-18T18:09:10.962Z,19.14
2022-08-18T18:11:49.730Z,19.11
2022-08-18T18:14:26.852Z,19.08
2022-08-18T18:17:21.150Z,19.05
2022-08-18T18:19:54.051Z,19.03
2022-08-18T18:22:26.378Z,19.01
2022-08-18T18:25:01.297Z,18.99
2022-08-18T18:27:43.549Z,18.97
2022-08-18T18:30:23.935Z,18.96
2022-08-18T18:33:02.861Z,18.93
2022-08-18T18:35:53.088Z,18.90
2022-08-18T18:38:31.719Z,18.84
2022-08-18T18:41:21.717Z,18.81
2022-08-18T18:43:51.263Z,18.78
2022-08-18T18:46:32.094Z,18.74
2022-08-18T18:49:22.235Z,18.68
2022-08-18T18:52:12.961Z,18.63
2022-08-18T18:54:45.561Z,18.57
2022-08-18T18:58:07.222Z,18.51
2022-08-18T19:00:54.162Z,18.43
2022-08-18T19:03:44.217Z,18.37
2022-08-18T19:06:18.038Z,18.30
2022-08-18T19:08:59.663Z,18.26
2022-08-18T19:11:59.468Z,18.20
2022-08-18T19:14:37.980Z,18.16
2022-08-18T19:17:21.829Z,18.08
2022-08-18T19:19:55.589Z,18.03
2022-08-18T19:22:31.275Z,18.00
2022-08-18T19:25:22.295Z,17.99
2022-08-18T19:28:02.659Z,17.98
2022-08-18T19:30:33.797Z,17.96
2022-08-18T19:33:04.798Z,17.92
2022-08-18T19:36:21.801Z,17.87
2022-08-18T19:39:07.646Z,17.83
2022-08-18T19:41:59.460Z,17.81
2022-08-18T19:45:06.511Z,17.77
2022-08-18T19:47:55.699Z,17.74
2022-08-18T19:50:46.784Z,17.71
2022-08-18T19:53:15.190Z,17.68
2022-08-18T19:56:11.983Z,17.64
2022-08-18T19:59:04.851Z,17.59
2022-08-18T20:01:35.190Z,17.57
2022-08-18T20:04:31.003Z,17.51
2022-08-18T20:07:38.013Z,17.47
2022-08-18T20:10:38.379Z,17.41
2022-08-18T20:13:33.763Z,17.35
2022-08-18T20:16:02.014Z,17.30
2022-08-18T20:18:35.394Z,17.29
2022-08-18T20:21:15.937Z,17.25
2022-08-18T20:23:56.831Z,17.23
2022-08-18T20:26:40.566Z,17.20
2022-08-18T20:29:11.483Z,17.17
2022-08-18T20:31:49.389Z,17.14
2022-08-18T20:34:22.651Z,17.11
2022-08-18T20:36:52.713Z,17.08
2022-08-18T20:39:59.070Z,17.05
2022-08-18T20:42:34.466Z,17.01
2022-08-18T20:45:20.767Z,16.98
2022-08-18T20:48:06.480Z,16.94
2022-08-18T20:50:53.380Z,16.91
2022-08-18T20:53:49.866Z,16.87
2022-08-18T20:56:43.430Z,16.84
2022-08-18T20:59:18.284Z,16.83
2022-08-18T21:01:58.615Z,16.81
2022-08-18T21:04:48.800Z,16.76
2022-08-18T21:07:36.648Z,16.74
2022-08-18T21:10:18.501Z,16.71
2022-08-18T21:13:02.037Z,16.68
2022-08-18T21:15:37.227Z,16.66
2022-08-18T21:18:18.118Z,16.67
2022-08-18T21:20:51.738Z,16.64
2022-08-18T21:23:30.041Z,16.62
2022-08-18T21:26:06.549Z,16.60
2022-08-18T21:28:38.100Z,16.59
2022-08-18T21:31:43.985Z,16.55
2022-08-18T21:34:28.573Z,16.51
2022-08-18T21:37:01.930Z,16.48
2022-08-18T21:39:30.282Z,16.44
2022-08-18T21:41:59.504Z,16.43
2022-08-18T21:44:41.619Z,16.42
2022-08-18T21:47:20.735Z,16.40
2022-08-18T21:50:01.613Z,16.37
2022-08-18T21:52:31.183Z,16.34
2022-08-18T21:55:04.708Z,16.31
2022-08-18T21:57:51.834Z,16.28
2022-08-18T22:00:28.397Z,16.26
2022-08-18T22:03:11.114Z,16.24
2022-08-18T22:05:58.948Z,16.23
2022-08-18T22:08:32.726Z,16.19
2022-08-18T22:12:01.248Z,16.16
2022-08-18T22:14:54.879Z,16.12
2022-08-18T22:17:32.052Z,16.12
2022-08-18T22:20:34.622Z,16.10
2022-08-18T22:23:45.484Z,16.07
2022-08-18T22:26:18.524Z,16.03
2022-08-18T22:29:24.312Z,16.03
2022-08-18T22:31:54.948Z,16.02
2022-08-18T22:34:29.362Z,16.00
2022-08-18T22:37:22.814Z,15.97
2022-08-18T22:39:58.265Z,15.93
2022-08-18T22:42:32.063Z,15.92
2022-08-18T22:45:04.653Z,15.91
2022-08-18T22:47:44.846Z,15.89
2022-08-18T22:50:14.407Z,15.87
2022-08-18T22:52:49.594Z,15.84
2022-08-18T22:55:23.164Z,15.82
2022-08-18T22:57:54.792Z,15.81
2022-08-18T23:00:25.460Z,15.79
2022-08-18T23:02:55.601Z,15.77
2022-08-18T23:05:24.926Z,15.78
2022-08-18T23:07:53.664Z,15.78
2022-08-18T23:10:22.052Z,15.78
2022-08-18T23:12:50.482Z,15.78
2022-08-18T23:15:19.623Z,15.76
2022-08-18T23:17:48.106Z,15.78
2022-08-18T23:20:19.238Z,15.78
2022-08-18T23:22:48.771Z,15.76
2022-08-18T23:25:17.360Z,15.75
2022-08-18T23:27:45.683Z,15.72
2022-08-18T23:30:23.913Z,15.71
2022-08-18T23:32:55.052Z,15.71
2022-08-18T23:35:23.866Z,15.70
2022-08-18T23:37:52.248Z,15.69
2022-08-18T23:40:20.914Z,15.67
2022-08-18T23:42:51.690Z,15.66
2022-08-18T23:45:20.508Z,15.66
2022-08-18T23:47:48.896Z,15.66
2022-08-18T23:50:17.339Z,15.63
2022-08-18T23:52:47.258Z,15.62
2022-08-18T23:55:16.116Z,15.60
2022-08-18T23:57:44.891Z,15.58
